sensor_id;sensor_type;location;lat;lon;timestamp;temperature;humidity
65231;DHT22;51813;40.666;16.602;2023-02-03T00:01:48;14.20;52.00
65231;DHT22;51813;40.666;16.602;2023-02-03T00:04:14;14.20;52.00
65231;DHT22;51813;40.666;16.602;2023-02-03T00:06:40;14.20;52.00
65231;DHT22;51813;40.666;16.602;2023-02-03T00:09:06;14.20;52.10
65231;DHT22;51813;40.666;16.602;2023-02-03T00:11:32;14.20;52.00
65231;DHT22;51813;40.666;16.602;2023-02-03T00:13:58;14.20;52.10
65231;DHT22;51813;40.666;16.602;2023-02-03T00:16:24;14.20;52.10
65231;DHT22;51813;40.666;16.602;2023-02-03T00:18:49;14.20;52.00
65231;DHT22;51813;40.666;16.602;2023-02-03T00:21:15;14.20;52.20
65231;DHT22;51813;40.666;16.602;2023-02-03T00:23:41;14.20;52.00
65231;DHT22;51813;40.666;16.602;2023-02-03T00:26:14;14.20;52.10
65231;DHT22;51813;40.666;16.602;2023-02-03T00:28:40;14.20;52.10
65231;DHT22;51813;40.666;16.602;2023-02-03T00:31:17;14.20;52.10
65231;DHT22;51813;40.666;16.602;2023-02-03T00:33:43;14.20;52.10
65231;DHT22;51813;40.666;16.602;2023-02-03T00:36:09;14.20;52.00
65231;DHT22;51813;40.666;16.602;2023-02-03T00:38:35;14.20;52.10
65231;DHT22;51813;40.666;16.602;2023-02-03T00:41:01;14.20;52.00
65231;DHT22;51813;40.666;16.602;2023-02-03T00:43:27;14.20;52.10
65231;DHT22;51813;40.666;16.602;2023-02-03T00:45:53;14.20;52.30
65231;DHT22;51813;40.666;16.602;2023-02-03T00:48:18;14.10;52.20
65231;DHT22;51813;40.666;16.602;2023-02-03T00:50:48;14.20;52.20
65231;DHT22;51813;40.666;16.602;2023-02-03T00:53:14;14.20;52.40
65231;DHT22;51813;40.666;16.602;2023-02-03T00:55:41;14.20;52.30
65231;DHT22;51813;40.666;16.602;2023-02-03T00:58:07;14.10;52.10
65231;DHT22;51813;40.666;16.602;2023-02-03T01:00:33;14.10;52.00
65231;DHT22;51813;40.666;16.602;2023-02-03T01:02:59;14.20;52.20
65231;DHT22;51813;40.666;16.602;2023-02-03T01:05:24;14.10;52.00
65231;DHT22;51813;40.666;16.602;2023-02-03T01:07:50;14.10;52.20
65231;DHT22;51813;40.666;16.602;2023-02-03T01:10:16;14.10;52.20
65231;DHT22;51813;40.666;16.602;2023-02-03T01:12:41;14.10;52.20
65231;DHT22;51813;40.666;16.602;2023-02-03T01:15:07;14.10;52.20
65231;DHT22;51813;40.666;16.602;2023-02-03T01:17:33;14.10;52.20
65231;DHT22;51813;40.666;16.602;2023-02-03T01:19:59;14.10;53.00
65231;DHT22;51813;40.666;16.602;2023-02-03T01:22:24;14.10;52.30
65231;DHT22;51813;40.666;16.602;2023-02-03T01:24:50;14.10;52.30
65231;DHT22;51813;40.666;16.602;2023-02-03T01:27:16;14.10;52.00
65231;DHT22;51813;40.666;16.602;2023-02-03T01:29:41;14.10;52.30
65231;DHT22;51813;40.666;16.602;2023-02-03T01:32:07;14.10;52.20
65231;DHT22;51813;40.666;16.602;2023-02-03T01:34:33;14.10;52.20
65231;DHT22;51813;40.666;16.602;2023-02-03T01:36:58;14.10;52.30
65231;DHT22;51813;40.666;16.602;2023-02-03T01:39:24;14.10;52.20
65231;DHT22;51813;40.666;16.602;2023-02-03T01:41:51;14.10;52.20
65231;DHT22;51813;40.666;16.602;2023-02-03T01:44:37;14.10;52.20
65231;DHT22;51813;40.666;16.602;2023-02-03T01:47:48;14.10;52.10
65231;DHT22;51813;40.666;16.602;2023-02-03T01:50:10;14.10;52.30
65231;DHT22;51813;40.666;16.602;2023-02-03T01:52:40;14.10;52.20
65231;DHT22;51813;40.666;16.602;2023-02-03T01:55:10;14.10;52.20
65231;DHT22;51813;40.666;16.602;2023-02-03T01:57:41;14.10;52.20
65231;DHT22;51813;40.666;16.602;2023-02-03T02:00:09;14.10;52.10
65231;DHT22;51813;40.666;16.602;2023-02-03T02:02:35;14.10;52.20
65231;DHT22;51813;40.666;16.602;2023-02-03T02:05:38;14.10;52.30
65231;DHT22;51813;40.666;16.602;2023-02-03T02:08:08;14.10;52.20
65231;DHT22;51813;40.666;16.602;2023-02-03T02:10:34;14.10;52.10
65231;DHT22;51813;40.666;16.602;2023-02-03T02:13:01;14.10;52.20
65231;DHT22;51813;40.666;16.602;2023-02-03T02:19:03;14.10;52.20
65231;DHT22;51813;40.666;16.602;2023-02-03T02:32:14;14.00;51.80
65231;DHT22;51813;40.666;16.602;2023-02-03T02:37:37;14.00;51.90
65231;DHT22;51813;40.666;16.602;2023-02-03T02:40:32;14.00;51.70
65231;DHT22;51813;40.666;16.602;2023-02-03T02:43:39;14.00;52.00
65231;DHT22;51813;40.666;16.602;2023-02-03T02:46:20;14.00;52.10
65231;DHT22;51813;40.666;16.602;2023-02-03T02:51:19;14.00;52.10
65231;DHT22;51813;40.666;16.602;2023-02-03T02:53:58;14.00;52.50
65231;DHT22;51813;40.666;16.602;2023-02-03T02:56:26;14.10;52.20
65231;DHT22;51813;40.666;16.602;2023-02-03T02:58:54;14.00;51.60
65231;DHT22;51813;40.666;16.602;2023-02-03T03:01:21;14.00;51.80
65231;DHT22;51813;40.666;16.602;2023-02-03T03:03:46;14.10;52.00
65231;DHT22;51813;40.666;16.602;2023-02-03T03:06:38;14.00;51.90
65231;DHT22;51813;40.666;16.602;2023-02-03T03:09:26;14.00;51.90
65231;DHT22;51813;40.666;16.602;2023-02-03T03:11:59;14.00;51.40
65231;DHT22;51813;40.666;16.602;2023-02-03T03:14:28;14.00;52.00
65231;DHT22;51813;40.666;16.602;2023-02-03T03:16:59;14.00;51.70
65231;DHT22;51813;40.666;16.602;2023-02-03T03:19:39;14.00;52.10
65231;DHT22;51813;40.666;16.602;2023-02-03T03:22:08;14.00;52.00
65231;DHT22;51813;40.666;16.602;2023-02-03T03:24:42;14.00;51.80
65231;DHT22;51813;40.666;16.602;2023-02-03T03:27:23;14.00;51.50
65231;DHT22;51813;40.666;16.602;2023-02-03T03:30:05;14.00;51.60
65231;DHT22;51813;40.666;16.602;2023-02-03T03:32:33;14.00;51.90
65231;DHT22;51813;40.666;16.602;2023-02-03T03:35:00;14.00;51.80
65231;DHT22;51813;40.666;16.602;2023-02-03T03:40:11;14.00;51.60
65231;DHT22;51813;40.666;16.602;2023-02-03T03:42:59;14.00;51.30
65231;DHT22;51813;40.666;16.602;2023-02-03T03:45:43;14.00;51.60
65231;DHT22;51813;40.666;16.602;2023-02-03T03:48:17;13.90;51.60
65231;DHT22;51813;40.666;16.602;2023-02-03T03:51:07;13.90;51.40
65231;DHT22;51813;40.666;16.602;2023-02-03T03:53:35;13.90;51.20
65231;DHT22;51813;40.666;16.602;2023-02-03T03:56:05;13.90;51.20
65231;DHT22;51813;40.666;16.602;2023-02-03T03:58:32;13.90;51.50
65231;DHT22;51813;40.666;16.602;2023-02-03T04:01:01;13.90;51.50
65231;DHT22;51813;40.666;16.602;2023-02-03T04:03:35;13.90;51.50
65231;DHT22;51813;40.666;16.602;2023-02-03T04:06:03;14.00;51.40
65231;DHT22;51813;40.666;16.602;2023-02-03T04:08:28;14.00;51.20
65231;DHT22;51813;40.666;16.602;2023-02-03T04:10:54;14.00;51.00
65231;DHT22;51813;40.666;16.602;2023-02-03T04:13:20;14.00;51.20
65231;DHT22;51813;40.666;16.602;2023-02-03T04:15:45;14.00;51.30
65231;DHT22;51813;40.666;16.602;2023-02-03T04:18:13;14.00;51.30
65231;DHT22;51813;40.666;16.602;2023-02-03T04:20:39;14.00;51.30
65231;DHT22;51813;40.666;16.602;2023-02-03T04:23:06;14.00;51.30
65231;DHT22;51813;40.666;16.602;2023-02-03T04:25:32;14.00;51.20
65231;DHT22;51813;40.666;16.602;2023-02-03T04:27:57;14.00;51.10
65231;DHT22;51813;40.666;16.602;2023-02-03T04:30:23;13.90;51.00
65231;DHT22;51813;40.666;16.602;2023-02-03T04:32:49;13.90;50.80
65231;DHT22;51813;40.666;16.602;2023-02-03T04:35:15;13.90;51.10
65231;DHT22;51813;40.666;16.602;2023-02-03T04:37:41;13.90;50.90
65231;DHT22;51813;40.666;16.602;2023-02-03T04:40:07;13.90;50.90
65231;DHT22;51813;40.666;16.602;2023-02-03T04:42:36;14.00;50.60
65231;DHT22;51813;40.666;16.602;2023-02-03T04:45:02;14.00;51.10
65231;DHT22;51813;40.666;16.602;2023-02-03T04:47:28;14.00;51.00
65231;DHT22;51813;40.666;16.602;2023-02-03T04:49:53;14.00;51.00
65231;DHT22;51813;40.666;16.602;2023-02-03T04:52:19;14.00;51.00
65231;DHT22;51813;40.666;16.602;2023-02-03T04:54:45;14.00;51.00
65231;DHT22;51813;40.666;16.602;2023-02-03T04:57:10;14.00;51.10
65231;DHT22;51813;40.666;16.602;2023-02-03T04:59:36;14.00;50.80
65231;DHT22;51813;40.666;16.602;2023-02-03T05:02:02;14.00;51.00
65231;DHT22;51813;40.666;16.602;2023-02-03T05:04:29;14.00;51.10
65231;DHT22;51813;40.666;16.602;2023-02-03T05:06:54;14.00;51.00
65231;DHT22;51813;40.666;16.602;2023-02-03T05:09:22;14.00;50.80
65231;DHT22;51813;40.666;16.602;2023-02-03T05:11:48;14.00;51.00
65231;DHT22;51813;40.666;16.602;2023-02-03T05:14:13;14.00;51.00
65231;DHT22;51813;40.666;16.602;2023-02-03T05:16:40;13.90;50.40
65231;DHT22;51813;40.666;16.602;2023-02-03T05:19:05;13.90;50.80
65231;DHT22;51813;40.666;16.602;2023-02-03T05:21:31;13.90;51.00
65231;DHT22;51813;40.666;16.602;2023-02-03T05:23:57;14.00;51.00
65231;DHT22;51813;40.666;16.602;2023-02-03T05:26:23;13.90;50.80
65231;DHT22;51813;40.666;16.602;2023-02-03T05:28:48;13.90;50.80
65231;DHT22;51813;40.666;16.602;2023-02-03T05:31:14;13.90;50.50
65231;DHT22;51813;40.666;16.602;2023-02-03T05:33:39;13.90;50.30
65231;DHT22;51813;40.666;16.602;2023-02-03T05:36:05;13.90;50.60
65231;DHT22;51813;40.666;16.602;2023-02-03T05:38:31;13.80;50.70
65231;DHT22;51813;40.666;16.602;2023-02-03T05:40:57;13.90;50.60
65231;DHT22;51813;40.666;16.602;2023-02-03T05:43:41;13.90;50.30
65231;DHT22;51813;40.666;16.602;2023-02-03T05:46:06;13.90;50.50
65231;DHT22;51813;40.666;16.602;2023-02-03T05:48:33;13.90;50.70
65231;DHT22;51813;40.666;16.602;2023-02-03T05:50:59;13.90;50.30
65231;DHT22;51813;40.666;16.602;2023-02-03T05:53:24;13.90;50.00
65231;DHT22;51813;40.666;16.602;2023-02-03T05:55:52;13.90;50.40
65231;DHT22;51813;40.666;16.602;2023-02-03T05:58:17;13.90;50.50
65231;DHT22;51813;40.666;16.602;2023-02-03T06:00:43;13.90;50.40
65231;DHT22;51813;40.666;16.602;2023-02-03T06:03:09;13.90;49.90
65231;DHT22;51813;40.666;16.602;2023-02-03T06:05:35;13.90;50.50
65231;DHT22;51813;40.666;16.602;2023-02-03T06:08:06;13.90;50.60
65231;DHT22;51813;40.666;16.602;2023-02-03T06:10:33;13.90;50.50
65231;DHT22;51813;40.666;16.602;2023-02-03T06:12:59;13.90;50.10
65231;DHT22;51813;40.666;16.602;2023-02-03T06:15:24;13.90;50.50
65231;DHT22;51813;40.666;16.602;2023-02-03T06:17:50;13.90;50.30
65231;DHT22;51813;40.666;16.602;2023-02-03T06:20:18;13.90;50.40
65231;DHT22;51813;40.666;16.602;2023-02-03T06:22:44;13.90;50.50
65231;DHT22;51813;40.666;16.602;2023-02-03T06:25:10;13.90;50.10
65231;DHT22;51813;40.666;16.602;2023-02-03T06:27:36;13.90;50.50
65231;DHT22;51813;40.666;16.602;2023-02-03T06:30:03;13.90;50.20
65231;DHT22;51813;40.666;16.602;2023-02-03T06:32:28;13.90;50.30
65231;DHT22;51813;40.666;16.602;2023-02-03T06:34:54;13.90;50.30
65231;DHT22;51813;40.666;16.602;2023-02-03T06:37:20;13.90;50.20
65231;DHT22;51813;40.666;16.602;2023-02-03T06:39:45;13.90;50.30
65231;DHT22;51813;40.666;16.602;2023-02-03T06:42:11;13.90;50.30
65231;DHT22;51813;40.666;16.602;2023-02-03T06:44:37;13.90;50.00
65231;DHT22;51813;40.666;16.602;2023-02-03T06:47:02;13.90;50.30
65231;DHT22;51813;40.666;16.602;2023-02-03T06:49:28;13.90;49.70
65231;DHT22;51813;40.666;16.602;2023-02-03T06:51:54;13.90;49.80
65231;DHT22;51813;40.666;16.602;2023-02-03T06:54:20;13.90;49.80
65231;DHT22;51813;40.666;16.602;2023-02-03T06:56:46;13.90;50.00
65231;DHT22;51813;40.666;16.602;2023-02-03T06:59:12;13.90;49.90
65231;DHT22;51813;40.666;16.602;2023-02-03T07:01:37;13.90;50.00
65231;DHT22;51813;40.666;16.602;2023-02-03T07:04:04;13.90;49.90
65231;DHT22;51813;40.666;16.602;2023-02-03T07:06:30;13.90;49.80
65231;DHT22;51813;40.666;16.602;2023-02-03T07:08:59;13.90;50.00
65231;DHT22;51813;40.666;16.602;2023-02-03T07:11:25;13.90;49.60
65231;DHT22;51813;40.666;16.602;2023-02-03T07:13:51;13.90;49.60
65231;DHT22;51813;40.666;16.602;2023-02-03T07:16:17;13.90;49.80
65231;DHT22;51813;40.666;16.602;2023-02-03T07:18:43;13.90;49.60
65231;DHT22;51813;40.666;16.602;2023-02-03T07:21:10;13.90;49.60
65231;DHT22;51813;40.666;16.602;2023-02-03T07:23:36;13.90;49.80
65231;DHT22;51813;40.666;16.602;2023-02-03T07:26:03;13.90;49.60
65231;DHT22;51813;40.666;16.602;2023-02-03T07:28:30;13.90;49.90
65231;DHT22;51813;40.666;16.602;2023-02-03T07:30:56;13.90;49.90
65231;DHT22;51813;40.666;16.602;2023-02-03T07:33:22;13.90;49.80
65231;DHT22;51813;40.666;16.602;2023-02-03T07:35:55;13.90;49.80
65231;DHT22;51813;40.666;16.602;2023-02-03T07:38:22;13.90;49.50
65231;DHT22;51813;40.666;16.602;2023-02-03T07:40:48;13.80;49.80
65231;DHT22;51813;40.666;16.602;2023-02-03T07:43:14;13.80;49.40
65231;DHT22;51813;40.666;16.602;2023-02-03T07:45:40;13.90;49.50
65231;DHT22;51813;40.666;16.602;2023-02-03T07:48:06;13.80;49.90
65231;DHT22;51813;40.666;16.602;2023-02-03T07:50:32;13.70;48.90
65231;DHT22;51813;40.666;16.602;2023-02-03T07:52:58;13.70;48.70
65231;DHT22;51813;40.666;16.602;2023-02-03T07:55:24;13.90;48.80
65231;DHT22;51813;40.666;16.602;2023-02-03T07:57:52;13.90;48.10
65231;DHT22;51813;40.666;16.602;2023-02-03T08:00:18;14.00;48.20
65231;DHT22;51813;40.666;16.602;2023-02-03T08:02:44;14.10;48.30
65231;DHT22;51813;40.666;16.602;2023-02-03T08:05:10;14.00;48.30
65231;DHT22;51813;40.666;16.602;2023-02-03T08:07:36;14.00;48.80
65231;DHT22;51813;40.666;16.602;2023-02-03T08:10:03;14.10;48.80
65231;DHT22;51813;40.666;16.602;2023-02-03T08:12:29;14.00;48.50
65231;DHT22;51813;40.666;16.602;2023-02-03T08:14:55;14.10;49.00
65231;DHT22;51813;40.666;16.602;2023-02-03T08:17:21;14.10;48.70
65231;DHT22;51813;40.666;16.602;2023-02-03T08:19:46;14.10;48.60
65231;DHT22;51813;40.666;16.602;2023-02-03T08:22:12;14.10;48.60
65231;DHT22;51813;40.666;16.602;2023-02-03T08:24:44;14.10;48.80
65231;DHT22;51813;40.666;16.602;2023-02-03T08:27:18;14.10;49.10
65231;DHT22;51813;40.666;16.602;2023-02-03T08:29:45;14.10;48.60
65231;DHT22;51813;40.666;16.602;2023-02-03T08:32:14;14.10;48.80
65231;DHT22;51813;40.666;16.602;2023-02-03T08:34:40;14.10;48.30
65231;DHT22;51813;40.666;16.602;2023-02-03T08:37:06;14.20;48.20
65231;DHT22;51813;40.666;16.602;2023-02-03T08:39:33;14.30;48.10
65231;DHT22;51813;40.666;16.602;2023-02-03T08:42:00;14.50;47.50
65231;DHT22;51813;40.666;16.602;2023-02-03T08:44:26;14.70;47.20
65231;DHT22;51813;40.666;16.602;2023-02-03T08:46:52;14.90;46.70
65231;DHT22;51813;40.666;16.602;2023-02-03T08:49:19;15.00;46.30
65231;DHT22;51813;40.666;16.602;2023-02-03T08:51:46;15.10;46.10
65231;DHT22;51813;40.666;16.602;2023-02-03T08:54:12;15.10;45.70
65231;DHT22;51813;40.666;16.602;2023-02-03T08:56:38;15.20;45.30
65231;DHT22;51813;40.666;16.602;2023-02-03T08:59:04;15.20;45.20
65231;DHT22;51813;40.666;16.602;2023-02-03T09:01:30;15.40;45.20
65231;DHT22;51813;40.666;16.602;2023-02-03T09:03:56;15.40;45.00
65231;DHT22;51813;40.666;16.602;2023-02-03T09:06:22;15.50;45.10
65231;DHT22;51813;40.666;16.602;2023-02-03T09:08:48;15.60;45.30
65231;DHT22;51813;40.666;16.602;2023-02-03T09:11:16;15.70;45.40
65231;DHT22;51813;40.666;16.602;2023-02-03T09:13:42;15.80;45.10
65231;DHT22;51813;40.666;16.602;2023-02-03T09:16:12;15.90;45.30
65231;DHT22;51813;40.666;16.602;2023-02-03T09:18:38;15.90;45.40
65231;DHT22;51813;40.666;16.602;2023-02-03T09:21:06;16.00;45.20
65231;DHT22;51813;40.666;16.602;2023-02-03T09:23:32;16.10;45.40
65231;DHT22;51813;40.666;16.602;2023-02-03T09:26:05;16.10;45.20
65231;DHT22;51813;40.666;16.602;2023-02-03T09:28:32;16.20;45.20
65231;DHT22;51813;40.666;16.602;2023-02-03T09:31:03;16.10;45.30
65231;DHT22;51813;40.666;16.602;2023-02-03T09:33:29;16.00;45.60
65231;DHT22;51813;40.666;16.602;2023-02-03T09:35:56;16.00;45.90
65231;DHT22;51813;40.666;16.602;2023-02-03T09:38:23;16.00;45.90
65231;DHT22;51813;40.666;16.602;2023-02-03T09:41:02;16.00;46.00
65231;DHT22;51813;40.666;16.602;2023-02-03T09:46:23;15.90;46.20
65231;DHT22;51813;40.666;16.602;2023-02-03T09:48:56;15.90;46.40
65231;DHT22;51813;40.666;16.602;2023-02-03T09:51:27;15.90;46.40
65231;DHT22;51813;40.666;16.602;2023-02-03T09:54:10;15.80;46.70
65231;DHT22;51813;40.666;16.602;2023-02-03T09:56:38;15.90;46.80
65231;DHT22;51813;40.666;16.602;2023-02-03T09:59:05;15.80;46.60
65231;DHT22;51813;40.666;16.602;2023-02-03T10:01:44;15.70;46.70
65231;DHT22;51813;40.666;16.602;2023-02-03T10:04:27;15.70;46.90
65231;DHT22;51813;40.666;16.602;2023-02-03T10:07:18;15.60;46.40
65231;DHT22;51813;40.666;16.602;2023-02-03T10:10:32;15.70;46.30
65231;DHT22;51813;40.666;16.602;2023-02-03T10:13:04;15.60;46.40
65231;DHT22;51813;40.666;16.602;2023-02-03T10:18:23;15.70;46.70
65231;DHT22;51813;40.666;16.602;2023-02-03T10:21:01;15.70;46.80
65231;DHT22;51813;40.666;16.602;2023-02-03T10:23:28;15.70;47.20
65231;DHT22;51813;40.666;16.602;2023-02-03T10:25:56;15.70;46.90
65231;DHT22;51813;40.666;16.602;2023-02-03T10:28:28;15.60;46.50
65231;DHT22;51813;40.666;16.602;2023-02-03T10:30:55;15.60;46.20
65231;DHT22;51813;40.666;16.602;2023-02-03T10:33:25;15.60;46.40
65231;DHT22;51813;40.666;16.602;2023-02-03T10:35:53;15.60;45.50
65231;DHT22;51813;40.666;16.602;2023-02-03T10:41:14;15.60;45.70
65231;DHT22;51813;40.666;16.602;2023-02-03T10:43:40;15.60;45.30
65231;DHT22;51813;40.666;16.602;2023-02-03T10:46:13;15.60;45.60
65231;DHT22;51813;40.666;16.602;2023-02-03T10:48:39;15.60;45.70
65231;DHT22;51813;40.666;16.602;2023-02-03T10:51:17;15.70;45.80
65231;DHT22;51813;40.666;16.602;2023-02-03T10:53:43;15.70;45.00
65231;DHT22;51813;40.666;16.602;2023-02-03T10:56:13;15.60;45.30
65231;DHT22;51813;40.666;16.602;2023-02-03T10:58:52;15.60;45.00
65231;DHT22;51813;40.666;16.602;2023-02-03T11:01:21;15.60;46.00
65231;DHT22;51813;40.666;16.602;2023-02-03T11:04:02;15.70;45.00
65231;DHT22;51813;40.666;16.602;2023-02-03T11:06:30;15.60;45.60
65231;DHT22;51813;40.666;16.602;2023-02-03T11:08:56;15.60;44.90
65231;DHT22;51813;40.666;16.602;2023-02-03T11:14:10;15.70;45.50
65231;DHT22;51813;40.666;16.602;2023-02-03T11:16:37;15.70;45.00
65231;DHT22;51813;40.666;16.602;2023-02-03T11:19:03;15.80;44.20
65231;DHT22;51813;40.666;16.602;2023-02-03T11:24:05;15.80;45.00
65231;DHT22;51813;40.666;16.602;2023-02-03T11:29:22;15.80;44.70
65231;DHT22;51813;40.666;16.602;2023-02-03T11:31:51;15.80;44.70
65231;DHT22;51813;40.666;16.602;2023-02-03T11:34:27;15.80;44.00
65231;DHT22;51813;40.666;16.602;2023-02-03T11:36:54;15.80;43.60
65231;DHT22;51813;40.666;16.602;2023-02-03T11:39:26;15.80;44.30
65231;DHT22;51813;40.666;16.602;2023-02-03T11:41:53;15.80;43.70
65231;DHT22;51813;40.666;16.602;2023-02-03T11:44:26;15.80;43.80
65231;DHT22;51813;40.666;16.602;2023-02-03T11:47:03;15.80;44.30
65231;DHT22;51813;40.666;16.602;2023-02-03T11:55:53;15.80;43.60
65231;DHT22;51813;40.666;16.602;2023-02-03T12:36:48;16.50;42.60
65231;DHT22;51813;40.666;16.602;2023-02-03T12:45:31;16.20;42.10
65231;DHT22;51813;40.666;16.602;2023-02-03T12:48:09;16.30;41.90
65231;DHT22;51813;40.666;16.602;2023-02-03T12:50:49;16.40;42.90
65231;DHT22;51813;40.666;16.602;2023-02-03T12:53:28;16.40;42.40
65231;DHT22;51813;40.666;16.602;2023-02-03T12:56:02;16.40;41.90
65231;DHT22;51813;40.666;16.602;2023-02-03T12:58:46;16.50;42.00
65231;DHT22;51813;40.666;16.602;2023-02-03T13:01:25;16.50;42.10
65231;DHT22;51813;40.666;16.602;2023-02-03T13:06:56;16.70;41.50
65231;DHT22;51813;40.666;16.602;2023-02-03T13:09:47;16.70;41.60
65231;DHT22;51813;40.666;16.602;2023-02-03T13:12:35;16.70;41.30
65231;DHT22;51813;40.666;16.602;2023-02-03T13:17:45;16.90;42.50
65231;DHT22;51813;40.666;16.602;2023-02-03T13:20:30;16.90;42.30
65231;DHT22;51813;40.666;16.602;2023-02-03T13:23:00;16.90;41.40
65231;DHT22;51813;40.666;16.602;2023-02-03T13:34:14;17.00;42.00
65231;DHT22;51813;40.666;16.602;2023-02-03T13:42:25;17.00;42.20
65231;DHT22;51813;40.666;16.602;2023-02-03T13:45:10;16.90;42.70
65231;DHT22;51813;40.666;16.602;2023-02-03T13:47:39;16.80;42.50
65231;DHT22;51813;40.666;16.602;2023-02-03T13:50:36;16.60;42.90
65231;DHT22;51813;40.666;16.602;2023-02-03T13:53:18;16.60;43.90
65231;DHT22;51813;40.666;16.602;2023-02-03T13:55:59;16.40;43.30
65231;DHT22;51813;40.666;16.602;2023-02-03T13:58:29;16.30;44.00
65231;DHT22;51813;40.666;16.602;2023-02-03T14:05:57;16.10;45.00
65231;DHT22;51813;40.666;16.602;2023-02-03T14:19:11;15.80;46.30
65231;DHT22;51813;40.666;16.602;2023-02-03T14:22:05;15.80;46.80
65231;DHT22;51813;40.666;16.602;2023-02-03T14:24:34;15.80;47.20
65231;DHT22;51813;40.666;16.602;2023-02-03T14:27:04;15.80;47.40
65231;DHT22;51813;40.666;16.602;2023-02-03T14:29:33;15.70;47.60
65231;DHT22;51813;40.666;16.602;2023-02-03T14:32:12;15.60;47.60
65231;DHT22;51813;40.666;16.602;2023-02-03T14:37:28;15.50;47.20
65231;DHT22;51813;40.666;16.602;2023-02-03T14:40:58;15.50;47.60
65231;DHT22;51813;40.666;16.602;2023-02-03T14:43:17;15.40;47.50
65231;DHT22;51813;40.666;16.602;2023-02-03T14:59:17;15.30;47.80
65231;DHT22;51813;40.666;16.602;2023-02-03T15:06:45;15.30;48.10
65231;DHT22;51813;40.666;16.602;2023-02-03T15:12:19;15.30;48.10
65231;DHT22;51813;40.666;16.602;2023-02-03T15:14:47;15.20;48.30
65231;DHT22;51813;40.666;16.602;2023-02-03T15:17:21;15.20;48.30
65231;DHT22;51813;40.666;16.602;2023-02-03T15:19:49;15.20;48.40
65231;DHT22;51813;40.666;16.602;2023-02-03T15:22:27;15.20;48.40
65231;DHT22;51813;40.666;16.602;2023-02-03T15:25:00;15.20;48.40
65231;DHT22;51813;40.666;16.602;2023-02-03T15:27:30;15.30;48.60
65231;DHT22;51813;40.666;16.602;2023-02-03T15:29:56;15.20;48.60
65231;DHT22;51813;40.666;16.602;2023-02-03T15:32:24;15.30;48.90
65231;DHT22;51813;40.666;16.602;2023-02-03T15:34:54;15.30;48.70
65231;DHT22;51813;40.666;16.602;2023-02-03T15:37:33;15.30;48.90
65231;DHT22;51813;40.666;16.602;2023-02-03T15:40:12;15.30;48.90
65231;DHT22;51813;40.666;16.602;2023-02-03T15:50:32;15.30;48.90
65231;DHT22;51813;40.666;16.602;2023-02-03T15:53:08;15.30;48.90
65231;DHT22;51813;40.666;16.602;2023-02-03T15:55:45;15.30;48.90
65231;DHT22;51813;40.666;16.602;2023-02-03T16:00:41;15.20;49.20
65231;DHT22;51813;40.666;16.602;2023-02-03T16:03:19;15.10;49.50
65231;DHT22;51813;40.666;16.602;2023-02-03T16:05:47;15.20;49.10
65231;DHT22;51813;40.666;16.602;2023-02-03T16:08:34;15.20;49.00
65231;DHT22;51813;40.666;16.602;2023-02-03T16:11:00;15.20;49.00
65231;DHT22;51813;40.666;16.602;2023-02-03T16:13:27;15.20;49.10
65231;DHT22;51813;40.666;16.602;2023-02-03T16:16:02;15.30;49.10
65231;DHT22;51813;40.666;16.602;2023-02-03T16:18:31;15.30;49.10
65231;DHT22;51813;40.666;16.602;2023-02-03T16:20:57;15.20;49.20
65231;DHT22;51813;40.666;16.602;2023-02-03T16:23:24;15.30;49.40
65231;DHT22;51813;40.666;16.602;2023-02-03T16:28:27;15.30;49.50
65231;DHT22;51813;40.666;16.602;2023-02-03T16:34:00;15.30;49.60
65231;DHT22;51813;40.666;16.602;2023-02-03T16:36:44;15.30;49.70
65231;DHT22;51813;40.666;16.602;2023-02-03T16:39:28;15.30;49.80
65231;DHT22;51813;40.666;16.602;2023-02-03T16:42:19;15.30;49.90
65231;DHT22;51813;40.666;16.602;2023-02-03T16:45:05;15.30;49.90
65231;DHT22;51813;40.666;16.602;2023-02-03T16:47:53;15.30;50.00
65231;DHT22;51813;40.666;16.602;2023-02-03T16:50:37;15.30;50.10
65231;DHT22;51813;40.666;16.602;2023-02-03T16:53:22;15.30;50.10
65231;DHT22;51813;40.666;16.602;2023-02-03T16:55:49;15.30;50.30
65231;DHT22;51813;40.666;16.602;2023-02-03T16:58:16;15.30;50.30
65231;DHT22;51813;40.666;16.602;2023-02-03T17:00:43;15.30;50.30
65231;DHT22;51813;40.666;16.602;2023-02-03T17:03:14;15.20;50.30
65231;DHT22;51813;40.666;16.602;2023-02-03T17:05:42;15.20;50.40
65231;DHT22;51813;40.666;16.602;2023-02-03T17:08:08;15.20;50.40
65231;DHT22;51813;40.666;16.602;2023-02-03T17:10:39;15.20;50.40
65231;DHT22;51813;40.666;16.602;2023-02-03T17:13:05;15.20;50.60
65231;DHT22;51813;40.666;16.602;2023-02-03T17:15:32;15.20;50.70
65231;DHT22;51813;40.666;16.602;2023-02-03T17:17:58;15.20;50.80
65231;DHT22;51813;40.666;16.602;2023-02-03T17:20:24;15.20;50.50
65231;DHT22;51813;40.666;16.602;2023-02-03T17:22:50;15.10;50.70
65231;DHT22;51813;40.666;16.602;2023-02-03T17:25:19;15.10;50.70
65231;DHT22;51813;40.666;16.602;2023-02-03T17:27:45;15.10;51.60
65231;DHT22;51813;40.666;16.602;2023-02-03T17:30:12;15.10;50.90
65231;DHT22;51813;40.666;16.602;2023-02-03T17:32:38;15.00;50.90
65231;DHT22;51813;40.666;16.602;2023-02-03T17:35:03;15.00;50.80
65231;DHT22;51813;40.666;16.602;2023-02-03T17:37:32;15.00;50.70
65231;DHT22;51813;40.666;16.602;2023-02-03T17:39:57;15.00;51.00
65231;DHT22;51813;40.666;16.602;2023-02-03T17:42:23;15.00;50.90
65231;DHT22;51813;40.666;16.602;2023-02-03T17:44:49;15.00;51.00
65231;DHT22;51813;40.666;16.602;2023-02-03T17:47:14;15.00;51.00
65231;DHT22;51813;40.666;16.602;2023-02-03T17:49:40;15.10;52.40
65231;DHT22;51813;40.666;16.602;2023-02-03T17:52:06;15.20;52.40
65231;DHT22;51813;40.666;16.602;2023-02-03T17:54:31;15.20;51.70
65231;DHT22;51813;40.666;16.602;2023-02-03T17:56:57;15.20;51.80
65231;DHT22;51813;40.666;16.602;2023-02-03T17:59:23;15.20;51.60
65231;DHT22;51813;40.666;16.602;2023-02-03T18:01:48;15.20;51.70
65231;DHT22;51813;40.666;16.602;2023-02-03T18:04:14;15.20;51.80
65231;DHT22;51813;40.666;16.602;2023-02-03T18:06:40;15.20;51.70
65231;DHT22;51813;40.666;16.602;2023-02-03T18:09:07;15.20;51.80
65231;DHT22;51813;40.666;16.602;2023-02-03T18:11:35;15.30;51.80
65231;DHT22;51813;40.666;16.602;2023-02-03T18:14:01;15.30;52.10
65231;DHT22;51813;40.666;16.602;2023-02-03T18:16:29;15.30;51.70
65231;DHT22;51813;40.666;16.602;2023-02-03T18:19:00;15.40;51.80